Rechercher aéroport 
image banner adimage banner adimage banner ad
image banner ad

PS29 - Sugan Pond

Situé à Solebury, United States

ICAO - PS29, IATA -

Données fournies par Airmate  

Information générale

Coordonnées: N40°22'30" W74°59'29"
Élévation : 320 feet MSL.
Variation magnétique : -12° East
Voir autres Aéroports à Pennsylvania

Données opérationnelles

Special qualification required
Heure actuelle UTC:
Heure actuelle locale:
Météo à : KDYL - Doylestown ( 12 km )
METAR: KDYL 131954Z AUTO 00000KT 10SM BKN039 OVC046 24/18 A2989 RMK AO2 SLP119 T02390178 $
Voir NOTAMs / SUP AIP / TFR affectant cet aéroport [VIEW]
Fréquences de communication: [VIEW]

Pistes:

Coordonnées de l'aéroport

Adresse: Solebury United States

Vue satellite de PS29